Time;durP1;ratioP1;P1;durP2;ratioP2;P2;SDS_P1;SDS_P2;PMS_P1;PMS_P2;Temp;Humidity;BMP_temperature;BMP_pressure;BME280_temperature;BME280_humidity;BME280_pressure;Samples;Min_cycle;Max_cycle;Signal;HPM_P1;HPM_P2
2024/01/21 00:02:14;;;;;;;2.30;1.90;;;12.60;57.80;;;;;;4975323;28;20467;-1
2024/01/21 00:04:40;;;;;;;2.50;1.90;;;12.60;58.00;;;;;;4991290;28;20176;-2
2024/01/21 00:07:07;;;;;;;2.23;1.70;;;12.60;57.90;;;;;;4991822;28;20270;-1
2024/01/21 00:09:33;;;;;;;2.27;2.00;;;12.60;58.10;;;;;;4975617;28;20257;-1
2024/01/21 00:11:59;;;;;;;2.27;1.70;;;12.50;58.00;;;;;;4975153;28;20186;-2
2024/01/21 00:14:25;;;;;;;2.20;2.00;;;12.50;58.10;;;;;;4975863;28;20329;-1
2024/01/21 00:16:50;;;;;;;2.07;1.53;;;12.50;58.10;;;;;;4973915;28;20317;-1
2024/01/21 00:19:16;;;;;;;2.00;1.80;;;12.50;58.20;;;;;;4976310;28;20421;-2
2024/01/21 00:21:42;;;;;;;2.87;1.67;;;12.50;58.30;;;;;;4975839;28;20389;-1
2024/01/21 00:24:08;;;;;;;2.40;1.63;;;12.60;58.30;;;;;;4991664;28;20249;-1
2024/01/21 00:26:33;;;;;;;2.00;1.80;;;12.60;58.30;;;;;;4974840;28;20217;-2
2024/01/21 00:29:00;;;;;;;2.07;1.70;;;12.60;58.20;;;;;;4991586;28;20194;-1
2024/01/21 00:31:27;;;;;;;2.60;1.87;;;12.60;58.00;;;;;;4991481;28;20179;-1
2024/01/21 00:33:53;;;;;;;2.03;1.70;;;12.60;57.90;;;;;;4974456;28;20235;-2
2024/01/21 00:36:19;;;;;;;2.17;1.60;;;12.60;57.70;;;;;;4974542;28;20719;-1
2024/01/21 00:38:45;;;;;;;2.10;1.73;;;12.60;57.70;;;;;;4991886;28;20187;-1
2024/01/21 00:41:15;;;;;;;1.93;1.60;;;12.60;57.50;;;;;;4992624;28;20204;-2
2024/01/21 00:43:40;;;;;;;1.90;1.70;;;12.60;57.50;;;;;;4993663;28;20198;-1
2024/01/21 00:46:07;;;;;;;2.30;2.03;;;12.60;57.50;;;;;;4993803;28;20520;-1
2024/01/21 00:48:34;;;;;;;1.90;1.80;;;12.70;57.50;;;;;;4994402;28;20214;-1
2024/01/21 00:51:01;;;;;;;2.37;2.00;;;12.70;57.40;;;;;;4977280;28;20207;-1
2024/01/21 00:53:27;;;;;;;2.90;2.10;;;12.70;57.30;;;;;;4977190;28;20232;-1
2024/01/21 00:55:52;;;;;;;2.50;1.60;;;12.70;57.10;;;;;;4993904;28;20174;-1
2024/01/21 00:58:18;;;;;;;2.40;1.90;;;12.70;57.10;;;;;;4977507;28;20178;-1
2024/01/21 01:00:44;;;;;;;2.20;2.00;;;12.60;57.00;;;;;;4993154;28;20176;-1
2024/01/21 01:03:10;;;;;;;2.20;2.00;;;12.60;56.90;;;;;;4974941;28;20208;-1
2024/01/21 01:05:36;;;;;;;3.47;1.80;;;12.60;56.90;;;;;;4976601;28;20182;-1
2024/01/21 01:08:01;;;;;;;2.10;1.70;;;12.60;56.70;;;;;;4976107;28;20276;-1
2024/01/21 01:10:27;;;;;;;2.07;1.60;;;12.60;56.70;;;;;;4991333;28;20540;-2
2024/01/21 01:12:54;;;;;;;4.03;1.80;;;12.60;56.70;;;;;;4991260;28;20178;-1
2024/01/21 01:15:20;;;;;;;1.93;1.73;;;12.60;56.60;;;;;;4974545;28;20281;-2
2024/01/21 01:17:47;;;;;;;3.07;1.80;;;12.60;56.50;;;;;;4991278;28;20266;-2
2024/01/21 01:20:13;;;;;;;1.90;1.60;;;12.60;56.50;;;;;;4976072;28;20206;-2
2024/01/21 01:22:39;;;;;;;1.90;1.70;;;12.60;56.50;;;;;;4975278;28;20176;-1
2024/01/21 01:25:05;;;;;;;3.20;1.70;;;12.60;56.40;;;;;;4971990;28;20428;-1
2024/01/21 01:27:31;;;;;;;2.30;1.83;;;12.60;56.40;;;;;;4990738;28;20182;-2
2024/01/21 01:29:57;;;;;;;1.90;1.67;;;12.50;56.40;;;;;;4971674;28;20210;-1
2024/01/21 01:32:22;;;;;;;1.93;1.63;;;12.50;56.40;;;;;;4972970;28;20179;-2
2024/01/21 01:34:49;;;;;;;1.63;1.53;;;12.50;56.50;;;;;;4974764;28;20190;-2
2024/01/21 01:37:15;;;;;;;2.00;1.80;;;12.50;56.10;;;;;;4975641;28;20181;-2
2024/01/21 01:39:41;;;;;;;1.80;1.60;;;12.50;56.40;;;;;;4991918;28;20240;-1
2024/01/21 01:42:07;;;;;;;2.17;1.57;;;12.50;56.10;;;;;;4972901;28;20182;-1
2024/01/21 01:44:32;;;;;;;1.80;1.63;;;12.50;56.20;;;;;;4992088;28;20182;-1
2024/01/21 01:46:59;;;;;;;1.53;1.43;;;12.50;56.10;;;;;;4990794;28;20189;-1
2024/01/21 01:49:26;;;;;;;2.10;1.70;;;12.40;56.00;;;;;;4992504;28;20303;-2
2024/01/21 01:51:54;;;;;;;1.87;1.70;;;12.40;56.10;;;;;;4993574;28;20175;-1
2024/01/21 01:54:23;;;;;;;2.17;1.70;;;12.40;56.10;;;;;;4993316;28;20238;-2
2024/01/21 01:56:49;;;;;;;1.87;1.63;;;12.40;56.00;;;;;;4977195;28;20212;-2
2024/01/21 01:59:18;;;;;;;1.77;1.63;;;12.40;56.10;;;;;;4975229;28;20186;-1
2024/01/21 02:01:44;;;;;;;1.90;1.70;;;12.40;56.00;;;;;;4977222;28;20199;-1
2024/01/21 02:04:11;;;;;;;1.73;1.57;;;12.40;56.00;;;;;;4975053;28;20288;-1
2024/01/21 02:06:38;;;;;;;1.87;1.53;;;12.40;56.00;;;;;;4971757;28;20255;-2
2024/01/21 02:09:05;;;;;;;1.97;1.60;;;12.50;56.00;;;;;;4974297;28;20607;-2
2024/01/21 02:11:31;;;;;;;1.63;1.53;;;12.40;55.80;;;;;;4973738;28;20516;-1
2024/01/21 02:13:56;;;;;;;1.70;1.60;;;12.50;55.80;;;;;;4973711;28;20178;-1
2024/01/21 02:16:22;;;;;;;2.07;1.50;;;12.50;55.70;;;;;;4972934;28;20178;-1
2024/01/21 02:18:50;;;;;;;1.57;1.40;;;12.50;55.70;;;;;;4973656;28;20297;-2
2024/01/21 02:21:16;;;;;;;1.77;1.50;;;12.50;55.60;;;;;;4973523;28;20286;-1
2024/01/21 02:23:45;;;;;;;2.20;1.80;;;12.50;55.60;;;;;;4990617;28;20224;-1
2024/01/21 02:26:11;;;;;;;2.07;1.50;;;12.50;55.50;;;;;;4973858;28;20183;-1
2024/01/21 02:28:37;;;;;;;2.60;1.73;;;12.50;55.30;;;;;;4991438;28;20205;-1
2024/01/21 02:31:02;;;;;;;1.80;1.70;;;12.60;55.20;;;;;;4992292;28;20579;-2
2024/01/21 02:33:28;;;;;;;2.30;1.63;;;12.60;55.20;;;;;;4975048;28;20213;-1
2024/01/21 02:35:54;;;;;;;1.43;1.33;;;12.60;55.10;;;;;;4976508;28;20204;-2
2024/01/21 02:38:20;;;;;;;1.70;1.47;;;12.60;55.10;;;;;;4992927;28;20268;-2
2024/01/21 02:40:45;;;;;;;1.77;1.67;;;12.60;55.00;;;;;;4992814;28;20183;-2
2024/01/21 02:43:11;;;;;;;1.83;1.60;;;12.60;54.80;;;;;;4976280;28;20588;-1
2024/01/21 02:45:37;;;;;;;2.37;1.63;;;12.60;54.70;;;;;;4992767;28;20186;-2
2024/01/21 02:48:03;;;;;;;1.90;1.70;;;12.60;54.50;;;;;;4975769;28;20584;-1
2024/01/21 02:50:29;;;;;;;1.97;1.77;;;12.60;54.50;;;;;;4991862;28;20181;-1
2024/01/21 02:52:54;;;;;;;2.23;1.87;;;12.60;54.20;;;;;;4974960;28;20376;-1
2024/01/21 02:55:20;;;;;;;2.80;2.07;;;12.60;53.90;;;;;;4991746;28;20185;-2
2024/01/21 02:57:46;;;;;;;2.17;1.60;;;12.60;54.00;;;;;;4974477;28;20227;-1
2024/01/21 03:00:12;;;;;;;2.03;1.80;;;12.60;53.60;;;;;;4991506;28;20421;-1
2024/01/21 03:02:38;;;;;;;1.63;1.53;;;12.70;53.70;;;;;;4992572;28;20222;-1
2024/01/21 03:05:04;;;;;;;5.30;1.83;;;12.60;53.40;;;;;;4974940;28;20219;-2
2024/01/21 03:07:30;;;;;;;2.20;1.90;;;12.60;53.30;;;;;;4974370;28;20221;-1
2024/01/21 03:09:56;;;;;;;1.90;1.67;;;12.60;53.30;;;;;;4974704;28;20557;-1
2024/01/21 03:12:21;;;;;;;2.00;1.80;;;12.60;53.10;;;;;;4975621;28;20170;-2
2024/01/21 03:14:47;;;;;;;2.23;1.80;;;12.60;52.90;;;;;;4992779;28;20177;-2
2024/01/21 03:17:13;;;;;;;2.03;1.87;;;12.60;52.80;;;;;;4974315;28;20186;-2
2024/01/21 03:19:39;;;;;;;1.90;1.70;;;12.60;52.70;;;;;;4991319;28;20290;-2
2024/01/21 03:22:04;;;;;;;1.80;1.70;;;12.60;52.50;;;;;;4975020;28;20278;-2
2024/01/21 03:24:31;;;;;;;3.33;1.93;;;12.60;52.30;;;;;;4974192;28;20244;-1
2024/01/21 03:26:56;;;;;;;1.90;1.67;;;12.60;52.40;;;;;;4975227;28;20183;-1
2024/01/21 03:29:23;;;;;;;1.80;1.57;;;12.60;52.50;;;;;;4975204;28;20222;-1
2024/01/21 03:31:49;;;;;;;1.70;1.50;;;12.60;52.50;;;;;;4974369;28;20244;-2
2024/01/21 03:34:15;;;;;;;2.13;1.70;;;12.50;52.30;;;;;;4974837;28;20178;-1
2024/01/21 03:36:41;;;;;;;2.00;1.80;;;12.60;52.20;;;;;;4992460;28;20237;-1
2024/01/21 03:39:07;;;;;;;2.10;1.70;;;12.60;52.10;;;;;;4992059;28;20179;-1
2024/01/21 03:41:33;;;;;;;2.10;1.80;;;12.50;52.00;;;;;;4974751;28;20195;-1
2024/01/21 03:43:59;;;;;;;2.20;1.80;;;12.50;51.90;;;;;;4991372;28;20188;-2
2024/01/21 03:46:24;;;;;;;2.00;1.80;;;12.50;52.00;;;;;;4991453;28;20187;-2
2024/01/21 03:48:50;;;;;;;2.10;1.70;;;12.50;51.80;;;;;;4974423;28;20218;-2
2024/01/21 03:51:16;;;;;;;2.07;1.73;;;12.50;51.80;;;;;;4974849;28;20341;-2
2024/01/21 03:53:42;;;;;;;1.97;1.77;;;12.50;51.80;;;;;;4994607;28;20213;-1
2024/01/21 03:56:08;;;;;;;2.20;1.67;;;12.40;51.90;;;;;;4995135;28;20189;-1
2024/01/21 03:58:34;;;;;;;1.50;1.40;;;12.40;51.90;;;;;;4994942;28;20186;-1
2024/01/21 04:01:02;;;;;;;1.60;1.50;;;12.40;51.80;;;;;;4995876;28;20185;-1
2024/01/21 04:03:28;;;;;;;3.37;1.83;;;12.40;51.90;;;;;;4977590;28;20184;-1
2024/01/21 04:05:54;;;;;;;1.70;1.60;;;12.30;51.90;;;;;;4995515;28;20171;-1
2024/01/21 04:08:19;;;;;;;2.50;1.80;;;12.40;52.00;;;;;;4994917;28;20226;-3
2024/01/21 04:10:45;;;;;;;1.70;1.60;;;12.30;51.70;;;;;;4978075;28;20174;-1
2024/01/21 04:13:11;;;;;;;2.00;1.80;;;12.30;51.80;;;;;;4995467;28;20276;-1
2024/01/21 04:15:37;;;;;;;1.60;1.50;;;12.30;51.90;;;;;;4995551;28;20171;-1
2024/01/21 04:18:03;;;;;;;1.70;1.60;;;12.30;51.80;;;;;;4994338;28;20443;-2
2024/01/21 04:20:28;;;;;;;1.90;1.60;;;12.30;51.90;;;;;;4995103;28;20197;-1
2024/01/21 04:22:54;;;;;;;2.30;1.80;;;12.30;51.70;;;;;;4978110;28;20177;-1
2024/01/21 04:25:20;;;;;;;1.97;1.57;;;12.30;51.80;;;;;;4976975;28;20646;-1
2024/01/21 04:27:45;;;;;;;2.10;1.90;;;12.20;51.80;;;;;;4977427;28;20188;-2
2024/01/21 04:30:11;;;;;;;1.50;1.40;;;12.30;51.90;;;;;;4993631;28;20217;-1
2024/01/21 04:32:37;;;;;;;1.90;1.43;;;12.30;51.90;;;;;;4975974;28;20278;-2
2024/01/21 04:35:04;;;;;;;2.67;1.63;;;12.30;51.90;;;;;;4994466;28;20170;-2
2024/01/21 04:37:29;;;;;;;2.23;1.80;;;12.20;51.70;;;;;;4977915;28;20177;-1
2024/01/21 04:39:55;;;;;;;1.60;1.50;;;12.20;51.50;;;;;;4977031;28;20185;-1
2024/01/21 04:42:21;;;;;;;2.07;1.87;;;12.20;51.60;;;;;;4994282;28;20547;-1
2024/01/21 04:44:47;;;;;;;1.70;1.60;;;12.20;51.40;;;;;;4993387;28;20175;-2
2024/01/21 04:47:12;;;;;;;2.10;1.90;;;12.20;51.40;;;;;;4993905;28;20269;-2
2024/01/21 04:49:38;;;;;;;1.97;1.80;;;12.20;51.30;;;;;;4993864;28;20216;-1
2024/01/21 04:52:04;;;;;;;2.43;1.73;;;12.20;51.00;;;;;;4994119;28;20174;-1
2024/01/21 04:54:30;;;;;;;2.10;1.90;;;12.20;51.00;;;;;;4993736;28;20478;-1
2024/01/21 04:56:55;;;;;;;2.50;1.90;;;12.20;50.80;;;;;;4977286;28;20472;-1
2024/01/21 04:59:21;;;;;;;2.00;1.80;;;12.20;50.90;;;;;;4993901;28;20235;-1
2024/01/21 05:01:50;;;;;;;1.90;1.80;;;12.20;50.70;;;;;;4976621;28;20254;-2
2024/01/21 05:04:16;;;;;;;2.23;1.93;;;12.20;50.70;;;;;;4992433;28;20216;-2
2024/01/21 05:06:41;;;;;;;2.33;1.80;;;12.20;50.60;;;;;;4992437;28;20214;-1
2024/01/21 05:09:07;;;;;;;2.70;1.80;;;12.20;50.50;;;;;;4993467;28;20388;-1
2024/01/21 05:11:33;;;;;;;2.43;1.70;;;12.20;50.50;;;;;;4992691;28;20355;-1
2024/01/21 05:13:59;;;;;;;2.23;1.93;;;12.20;50.40;;;;;;4976323;28;20385;-1
2024/01/21 05:16:24;;;;;;;1.80;1.70;;;12.20;50.30;;;;;;4993655;28;20339;-1
2024/01/21 05:18:51;;;;;;;1.73;1.60;;;12.10;50.20;;;;;;4974905;28;20180;-1
2024/01/21 05:21:23;;;;;;;2.87;1.90;;;12.10;50.10;;;;;;4993360;28;20272;-1
2024/01/21 05:23:52;;;;;;;2.83;2.37;;;12.10;50.10;;;;;;4992950;28;20647;-1
2024/01/21 05:26:18;;;;;;;2.53;2.03;;;12.20;50.50;;;;;;4992666;28;20315;-1
2024/01/21 05:28:44;;;;;;;2.30;1.83;;;12.10;50.00;;;;;;4992979;28;20214;-2
2024/01/21 05:31:10;;;;;;;2.20;1.93;;;12.10;50.00;;;;;;4992247;28;20550;-1
2024/01/21 05:33:38;;;;;;;2.20;1.83;;;12.10;50.00;;;;;;4975854;28;20178;-1
2024/01/21 05:36:04;;;;;;;2.00;1.80;;;12.00;49.80;;;;;;4974862;28;20324;-1
2024/01/21 05:38:29;;;;;;;2.10;1.90;;;12.10;49.80;;;;;;4992221;28;20181;-3
2024/01/21 05:40:55;;;;;;;2.67;2.07;;;12.00;49.80;;;;;;4975726;28;20189;-1
2024/01/21 05:43:21;;;;;;;2.00;1.80;;;12.00;49.60;;;;;;4975392;28;20551;-1
2024/01/21 05:45:47;;;;;;;1.93;1.70;;;12.10;49.60;;;;;;4975129;28;20286;-1
2024/01/21 05:48:12;;;;;;;2.97;1.80;;;12.10;49.70;;;;;;4973874;28;20217;-1
2024/01/21 05:50:38;;;;;;;2.20;2.00;;;12.10;49.80;;;;;;4991627;28;20414;-1
2024/01/21 05:53:05;;;;;;;2.10;1.90;;;12.00;49.60;;;;;;4973573;28;20185;-2
2024/01/21 05:55:32;;;;;;;2.30;1.80;;;12.00;49.50;;;;;;4991510;28;20171;-1
2024/01/21 05:57:57;;;;;;;2.67;2.00;;;12.00;49.60;;;;;;4974834;28;20441;-2
2024/01/21 06:00:23;;;;;;;1.97;1.60;;;12.00;49.50;;;;;;4974718;28;20176;-1
2024/01/21 06:02:50;;;;;;;2.43;1.90;;;12.10;49.40;;;;;;4991899;28;20278;-1
2024/01/21 06:05:16;;;;;;;2.00;1.80;;;12.10;49.30;;;;;;4993135;28;20176;-1
2024/01/21 06:07:41;;;;;;;2.93;2.10;;;12.10;49.20;;;;;;4993556;28;20173;-1
2024/01/21 06:10:08;;;;;;;2.00;1.80;;;12.10;49.20;;;;;;4991976;28;20294;-1
2024/01/21 06:12:33;;;;;;;2.10;1.90;;;12.20;49.10;;;;;;4975661;28;20171;-2
2024/01/21 06:14:59;;;;;;;1.93;1.73;;;12.20;49.00;;;;;;4974317;28;20598;-1
2024/01/21 06:17:25;;;;;;;2.40;1.93;;;12.20;48.90;;;;;;4992258;28;20185;-1
2024/01/21 06:19:51;;;;;;;3.23;1.93;;;12.20;48.70;;;;;;4975776;28;20189;-2
2024/01/21 06:22:16;;;;;;;2.20;2.00;;;12.20;48.60;;;;;;4995915;28;20508;-1
2024/01/21 06:24:42;;;;;;;2.20;2.00;;;12.30;48.50;;;;;;4992410;28;20575;-1
2024/01/21 06:27:07;;;;;;;3.03;1.90;;;12.40;48.50;;;;;;4992744;28;20194;-2
2024/01/21 06:29:33;;;;;;;2.47;2.00;;;12.50;48.50;;;;;;4993180;28;20213;-1
2024/01/21 06:31:59;;;;;;;2.33;2.00;;;12.60;48.10;;;;;;4976459;28;20182;-1
2024/01/21 06:34:25;;;;;;;2.20;2.00;;;12.60;48.10;;;;;;4975477;28;20251;-1
2024/01/21 06:36:50;;;;;;;2.60;2.17;;;12.60;47.90;;;;;;4975665;28;20235;-2
2024/01/21 06:39:16;;;;;;;2.53;2.20;;;12.60;47.70;;;;;;4975129;28;20195;-1
2024/01/21 06:41:42;;;;;;;2.90;2.20;;;12.50;47.70;;;;;;4976499;28;20612;-1
2024/01/21 06:44:08;;;;;;;5.20;2.30;;;12.50;47.70;;;;;;4973656;28;20189;-1
2024/01/21 06:46:34;;;;;;;2.67;1.93;;;12.50;47.50;;;;;;4974106;28;20554;-2
2024/01/21 06:49:00;;;;;;;2.63;2.20;;;12.40;47.70;;;;;;4990450;28;20208;-1
2024/01/21 06:51:34;;;;;;;2.80;2.20;;;12.40;47.70;;;;;;4991577;28;20170;-1
2024/01/21 06:54:00;;;;;;;3.73;2.13;;;12.30;48.00;;;;;;4972631;28;20186;-1
2024/01/21 06:56:26;;;;;;;5.13;2.00;;;12.20;47.90;;;;;;4989456;28;20181;-1
2024/01/21 06:58:52;;;;;;;2.97;2.30;;;12.20;47.90;;;;;;4989407;28;20186;-1
2024/01/21 07:01:18;;;;;;;2.10;1.90;;;12.20;48.00;;;;;;4971884;28;20267;-1
2024/01/21 07:03:44;;;;;;;2.73;2.20;;;12.20;48.10;;;;;;4973760;28;20448;-2
2024/01/21 07:06:10;;;;;;;2.37;2.17;;;12.10;48.30;;;;;;4991303;28;20207;-1
2024/01/21 07:08:38;;;;;;;2.87;2.50;;;12.00;47.90;;;;;;4991851;28;20201;-1
2024/01/21 07:11:07;;;;;;;3.03;2.30;;;11.90;48.00;;;;;;4992228;28;20176;-1
2024/01/21 07:13:33;;;;;;;2.73;2.27;;;11.90;48.00;;;;;;4992695;28;20235;-1
2024/01/21 07:15:59;;;;;;;2.30;2.10;;;11.80;48.10;;;;;;4990690;28;20188;-1
2024/01/21 07:18:25;;;;;;;2.40;2.20;;;11.70;48.00;;;;;;4973637;28;20243;-1
2024/01/21 07:20:51;;;;;;;2.93;2.47;;;11.70;48.30;;;;;;4991160;28;20183;-1
2024/01/21 07:23:16;;;;;;;3.03;2.27;;;11.60;48.40;;;;;;4991053;28;20189;-1
2024/01/21 07:25:42;;;;;;;2.77;2.20;;;11.60;48.50;;;;;;4990019;28;20245;-2
2024/01/21 07:28:08;;;;;;;2.70;2.30;;;11.50;48.40;;;;;;4993765;28;20181;-2
2024/01/21 07:30:34;;;;;;;3.33;2.50;;;11.50;48.70;;;;;;4978741;28;20428;-1
2024/01/21 07:33:00;;;;;;;2.83;2.17;;;11.60;48.90;;;;;;4977723;28;20539;-2
2024/01/21 07:35:25;;;;;;;2.57;2.33;;;11.70;48.70;;;;;;4976948;28;20215;-1
2024/01/21 07:37:51;;;;;;;2.90;2.10;;;11.80;48.60;;;;;;4994186;28;20496;-1
2024/01/21 07:40:17;;;;;;;2.27;2.07;;;12.10;48.50;;;;;;4993744;28;20178;-2
2024/01/21 07:42:42;;;;;;;2.80;2.30;;;12.50;47.90;;;;;;4991973;28;20207;-1
2024/01/21 07:45:08;;;;;;;3.20;2.43;;;12.60;47.70;;;;;;4993039;28;20174;-1
2024/01/21 07:47:35;;;;;;;3.33;2.20;;;12.50;47.70;;;;;;4992004;28;20224;-1
2024/01/21 07:50:00;;;;;;;2.43;2.10;;;12.50;47.80;;;;;;4975873;28;20215;-1
2024/01/21 07:52:26;;;;;;;2.63;2.43;;;12.60;47.90;;;;;;4992528;28;20168;-2
2024/01/21 07:54:52;;;;;;;3.33;2.60;;;12.70;47.70;;;;;;4992316;28;20180;-1
2024/01/21 07:57:17;;;;;;;2.50;2.30;;;12.70;47.40;;;;;;4991515;28;20172;-1
2024/01/21 07:59:43;;;;;;;3.17;2.20;;;12.80;47.20;;;;;;4993029;28;20187;-1
2024/01/21 08:02:09;;;;;;;2.77;2.43;;;12.80;47.10;;;;;;4974964;28;20197;-1
2024/01/21 08:04:35;;;;;;;2.70;2.27;;;12.80;47.30;;;;;;4992218;28;20223;-1
2024/01/21 08:07:01;;;;;;;2.40;2.20;;;12.90;47.40;;;;;;4992595;28;20351;-1
2024/01/21 08:09:28;;;;;;;2.97;2.43;;;12.90;47.50;;;;;;4976481;28;20212;-1
2024/01/21 08:11:53;;;;;;;2.50;2.30;;;12.90;47.60;;;;;;4975811;28;20243;-1
2024/01/21 08:14:19;;;;;;;2.90;2.60;;;13.00;47.70;;;;;;4994264;28;20172;-2
2024/01/21 08:17:05;;;;;;;3.10;2.50;;;13.00;47.50;;;;;;5027915;22;20237;-80
2024/01/21 08:19:36;;;;;;;3.20;2.67;;;12.90;47.30;;;;;;4994119;28;20532;-78
2024/01/21 08:22:03;;;;;;;3.30;2.27;;;12.80;47.20;;;;;;4993285;28;20179;-78
2024/01/21 08:24:29;;;;;;;2.60;2.30;;;12.80;47.50;;;;;;4994385;28;20628;-78
2024/01/21 08:26:55;;;;;;;2.83;2.50;;;12.70;47.50;;;;;;4993075;28;20547;-79
2024/01/21 08:29:20;;;;;;;2.50;2.30;;;12.70;47.50;;;;;;4992634;28;20212;-78
2024/01/21 08:31:49;;;;;;;2.73;2.40;;;12.60;47.70;;;;;;4991997;28;20245;-77
2024/01/21 08:34:15;;;;;;;3.17;2.47;;;12.60;47.50;;;;;;4992538;28;20172;-76
2024/01/21 08:36:40;;;;;;;3.20;2.80;;;12.50;47.60;;;;;;4993183;28;20246;-76
2024/01/21 08:39:09;;;;;;;2.67;2.47;;;12.50;47.70;;;;;;4992698;28;20546;-76
2024/01/21 08:41:35;;;;;;;2.53;2.33;;;12.40;47.90;;;;;;4993313;28;20181;-77
2024/01/21 08:44:02;;;;;;;2.80;2.30;;;12.40;48.00;;;;;;4993922;28;20224;-77
2024/01/21 08:46:28;;;;;;;3.07;2.57;;;12.30;48.10;;;;;;4994999;28;20480;-76
2024/01/21 08:48:54;;;;;;;3.70;2.70;;;12.30;48.20;;;;;;4994505;28;20208;-77
2024/01/21 08:51:20;;;;;;;2.80;2.50;;;12.30;48.10;;;;;;4994064;28;20176;-77
2024/01/21 09:01:36;;;;;;;;;;;;;;;;;;;;;
2024/01/21 09:18:56;;;;;;;2.70;2.23;;;12.90;48.00;;;;;;5011197;28;20176;-77
2024/01/21 09:21:22;;;;;;;2.63;2.17;;;13.20;47.90;;;;;;4986853;28;20199;-76
2024/01/21 09:23:48;;;;;;;2.80;2.23;;;13.30;47.90;;;;;;5007804;28;20193;-76
2024/01/21 09:26:13;;;;;;;2.70;2.33;;;13.40;47.80;;;;;;4994614;28;20409;-76
2024/01/21 09:28:42;;;;;;;2.73;2.30;;;13.40;47.90;;;;;;4995618;28;20252;-76
2024/01/21 09:31:09;;;;;;;3.07;2.37;;;13.30;47.80;;;;;;4997870;28;20179;-76
2024/01/21 09:33:35;;;;;;;2.73;2.43;;;13.40;48.10;;;;;;4998205;28;20166;-76
2024/01/21 09:36:01;;;;;;;3.07;2.40;;;13.30;48.10;;;;;;4989246;28;20179;-76
2024/01/21 09:38:27;;;;;;;2.63;2.43;;;13.40;48.20;;;;;;4974089;28;20556;-77
2024/01/21 09:41:28;;;;;;;3.27;2.40;;;13.60;48.10;;;;;;4973661;28;20273;-77
2024/01/21 09:43:54;;;;;;;3.40;2.27;;;13.60;47.90;;;;;;4972453;28;20192;-76
2024/01/21 09:46:20;;;;;;;5.57;2.40;;;13.60;48.20;;;;;;4972383;28;20266;-77
2024/01/21 09:48:47;;;;;;;3.40;2.50;;;13.50;48.40;;;;;;4972558;28;20558;-77
2024/01/21 09:51:14;;;;;;;2.53;2.33;;;13.40;48.60;;;;;;4971056;28;20184;-76
2024/01/21 09:53:40;;;;;;;2.83;2.33;;;13.30;48.80;;;;;;4977507;28;20537;-77
2024/01/21 09:56:07;;;;;;;3.03;2.27;;;13.20;48.90;;;;;;4981148;28;20582;-77
2024/01/21 09:58:52;;;;;;;3.13;2.20;;;13.20;49.20;;;;;;4977391;28;20285;-77
2024/01/21 10:01:19;;;;;;;2.67;2.40;;;13.20;49.20;;;;;;4978044;28;20174;-77
2024/01/21 10:03:46;;;;;;;4.07;3.00;;;13.20;49.20;;;;;;4972633;28;20177;-77
2024/01/21 10:06:12;;;;;;;5.37;2.50;;;13.20;49.30;;;;;;4971799;28;20190;-77
2024/01/21 10:08:42;;;;;;;3.70;2.50;;;13.20;49.40;;;;;;4972724;28;20214;-77
2024/01/21 10:11:09;;;;;;;2.87;2.57;;;13.20;49.50;;;;;;4971622;28;20201;-77
2024/01/21 10:13:38;;;;;;;5.00;2.40;;;13.10;49.80;;;;;;4971473;28;20223;-77
2024/01/21 10:16:08;;;;;;;3.60;2.13;;;13.10;50.00;;;;;;4971492;28;20181;-77
2024/01/21 10:18:35;;;;;;;3.10;2.50;;;13.10;50.20;;;;;;4970805;28;20179;-77
2024/01/21 10:21:06;;;;;;;3.47;2.40;;;13.00;50.40;;;;;;4970242;28;20196;-77
2024/01/21 10:23:32;;;;;;;2.73;2.13;;;12.90;50.70;;;;;;4970070;28;20288;-76
2024/01/21 10:26:00;;;;;;;2.67;2.30;;;12.90;51.00;;;;;;4971599;28;20206;-76
2024/01/21 10:28:28;;;;;;;7.53;2.40;;;12.80;51.30;;;;;;4971224;28;20581;-77
2024/01/21 10:30:54;;;;;;;5.80;2.23;;;12.80;51.40;;;;;;4971843;28;20171;-77
2024/01/21 10:33:20;;;;;;;3.10;2.40;;;12.80;51.50;;;;;;4971529;28;20167;-77
2024/01/21 10:35:47;;;;;;;3.07;2.33;;;12.80;51.70;;;;;;4970643;28;20258;-77
2024/01/21 10:38:14;;;;;;;6.57;2.57;;;12.70;51.60;;;;;;4974108;28;20172;-77
2024/01/21 10:40:43;;;;;;;5.53;2.57;;;12.70;51.60;;;;;;4992751;28;20302;-77
2024/01/21 10:43:14;;;;;;;3.03;2.60;;;12.80;51.50;;;;;;4990540;28;20178;-77
2024/01/21 10:45:45;;;;;;;3.67;2.80;;;12.70;51.40;;;;;;4989182;28;20169;-77
2024/01/21 10:48:13;;;;;;;4.13;2.80;;;12.70;51.30;;;;;;4990211;28;20276;-77
2024/01/21 10:50:43;;;;;;;3.43;2.73;;;12.70;51.30;;;;;;4990068;28;20188;-77
2024/01/21 10:53:13;;;;;;;3.60;2.60;;;12.70;51.30;;;;;;4991665;28;20175;-77
2024/01/21 10:55:40;;;;;;;3.67;2.57;;;12.70;51.20;;;;;;4989024;28;20185;-77
2024/01/21 10:58:07;;;;;;;3.77;2.77;;;12.70;51.10;;;;;;4989844;28;20507;-77
2024/01/21 11:00:34;;;;;;;4.17;3.07;;;12.70;51.10;;;;;;4989478;28;20468;-76
2024/01/21 11:03:25;;;;;;;4.10;2.53;;;12.70;51.10;;;;;;4992732;28;20269;-77
2024/01/21 11:06:03;;;;;;;3.63;2.80;;;12.70;51.30;;;;;;4993586;28;20178;-77
2024/01/21 11:08:29;;;;;;;3.40;2.70;;;12.70;51.60;;;;;;4993694;28;20439;-77
2024/01/21 11:11:11;;;;;;;4.37;2.47;;;12.70;51.80;;;;;;4995117;28;20175;-77
2024/01/21 11:13:42;;;;;;;5.80;2.83;;;12.80;51.90;;;;;;4994524;28;20179;-77
2024/01/21 11:16:29;;;;;;;5.37;2.90;;;12.80;51.90;;;;;;4992152;28;20520;-76
2024/01/21 11:19:06;;;;;;;3.83;2.90;;;12.80;52.10;;;;;;4997591;28;20187;-77
2024/01/21 11:21:40;;;;;;;5.70;3.17;;;12.90;52.10;;;;;;4996997;28;20727;-77
2024/01/21 11:24:13;;;;;;;3.00;2.50;;;12.90;52.00;;;;;;4998358;28;20188;-77
2024/01/21 11:26:42;;;;;;;4.23;2.93;;;12.90;52.00;;;;;;4994013;28;20176;-77
2024/01/21 11:29:44;;;;;;;4.90;3.13;;;12.90;52.00;;;;;;4993644;28;20625;-77
2024/01/21 11:32:10;;;;;;;9.53;2.63;;;12.90;51.90;;;;;;4932846;29;20592;-77
2024/01/21 11:34:40;;;;;;;4.00;2.60;;;12.90;51.90;;;;;;4980216;28;20230;-77
2024/01/21 11:37:12;;;;;;;3.93;2.83;;;12.90;51.90;;;;;;4993029;28;20219;-77
2024/01/21 11:39:38;;;;;;;3.73;2.80;;;13.00;52.00;;;;;;4992220;28;20185;-77
2024/01/21 11:42:05;;;;;;;5.93;2.63;;;13.00;51.90;;;;;;4991261;28;20178;-77
2024/01/21 11:44:32;;;;;;;4.13;2.93;;;13.00;51.90;;;;;;4995390;28;20185;-75
2024/01/21 11:47:01;;;;;;;3.70;2.80;;;13.00;52.00;;;;;;4998943;28;20183;-74
2024/01/21 11:49:32;;;;;;;3.30;2.37;;;13.00;51.90;;;;;;4997270;28;20237;-74
2024/01/21 11:52:00;;;;;;;7.17;2.87;;;12.90;52.00;;;;;;4992355;28;20184;-73
2024/01/21 11:54:30;;;;;;;4.47;2.90;;;12.90;52.00;;;;;;4991047;28;20176;-75
2024/01/21 11:56:56;;;;;;;3.83;3.00;;;12.90;52.00;;;;;;4992054;28;20277;-72
2024/01/21 11:59:24;;;;;;;4.07;3.10;;;12.90;52.10;;;;;;4990394;28;21043;-74
2024/01/21 12:01:53;;;;;;;4.97;3.00;;;12.90;52.10;;;;;;4992914;28;20189;-73
2024/01/21 12:04:19;;;;;;;3.80;2.70;;;12.90;52.20;;;;;;4993331;28;20183;-73
2024/01/21 12:06:47;;;;;;;6.80;2.90;;;12.90;52.30;;;;;;4992575;28;20616;-73
2024/01/21 12:09:14;;;;;;;4.67;3.03;;;12.90;52.40;;;;;;4990974;28;20211;-73
2024/01/21 12:11:40;;;;;;;4.13;2.67;;;12.90;52.40;;;;;;4991894;28;20188;-74
2024/01/21 12:14:09;;;;;;;3.47;2.47;;;12.80;52.50;;;;;;4990826;28;20212;-71
2024/01/21 12:16:35;;;;;;;5.53;2.80;;;12.80;52.60;;;;;;5007750;28;20548;-73
2024/01/21 12:19:02;;;;;;;5.53;2.70;;;12.80;52.50;;;;;;4990414;28;20190;-72
2024/01/21 12:21:29;;;;;;;2.90;2.50;;;12.70;52.50;;;;;;4990860;28;20199;-73
2024/01/21 12:23:57;;;;;;;4.13;2.50;;;12.70;52.80;;;;;;4991739;28;20268;-73
2024/01/21 12:26:24;;;;;;;4.03;2.50;;;12.70;52.50;;;;;;4990596;28;20183;-72
2024/01/21 12:29:01;;;;;;;4.13;2.93;;;12.70;52.60;;;;;;4990502;28;20210;-73
2024/01/21 12:31:29;;;;;;;4.97;2.80;;;12.70;52.60;;;;;;4991801;28;20181;-71
2024/01/21 12:34:00;;;;;;;4.23;3.00;;;12.70;52.70;;;;;;4990543;28;20467;-72
2024/01/21 12:36:26;;;;;;;4.83;2.90;;;12.70;52.60;;;;;;4992002;28;20399;-73
2024/01/21 12:38:56;;;;;;;6.47;2.43;;;12.70;52.70;;;;;;4990231;28;20208;-73
2024/01/21 12:41:22;;;;;;;3.80;2.70;;;12.70;52.70;;;;;;4991506;28;20242;-75
2024/01/21 12:43:51;;;;;;;3.90;2.63;;;12.80;52.80;;;;;;4993014;28;20178;-74
2024/01/21 12:46:19;;;;;;;4.17;2.80;;;12.80;52.80;;;;;;4993151;28;20243;-73
2024/01/21 12:48:48;;;;;;;2.60;2.40;;;12.80;52.60;;;;;;4990257;28;20321;-75
2024/01/21 12:51:17;;;;;;;3.73;2.47;;;12.90;52.70;;;;;;4990707;28;20177;-75
2024/01/21 12:53:43;;;;;;;5.67;2.70;;;13.00;52.60;;;;;;4989058;28;20478;-75
2024/01/21 12:56:09;;;;;;;5.70;2.80;;;13.10;52.60;;;;;;4989891;28;20513;-73
2024/01/21 12:58:36;;;;;;;3.70;2.53;;;13.10;52.50;;;;;;4991302;28;20184;-72
2024/01/21 13:01:03;;;;;;;4.23;2.80;;;13.20;52.30;;;;;;4990121;28;20183;-72
2024/01/21 13:03:29;;;;;;;4.07;2.70;;;13.30;52.40;;;;;;4989688;28;20202;-72
2024/01/21 13:05:54;;;;;;;6.00;2.53;;;13.30;52.20;;;;;;4989447;28;20284;-72
2024/01/21 13:08:22;;;;;;;6.37;2.60;;;13.30;52.20;;;;;;4989559;28;20181;-72
2024/01/21 13:10:48;;;;;;;4.17;2.70;;;13.30;52.20;;;;;;4987836;28;20466;-72
2024/01/21 13:13:14;;;;;;;4.27;2.80;;;13.30;52.20;;;;;;5007369;28;20170;-72
2024/01/21 13:15:40;;;;;;;3.70;2.60;;;13.30;52.20;;;;;;5006725;28;20174;-73
2024/01/21 13:18:07;;;;;;;4.60;3.00;;;13.20;52.20;;;;;;4989349;28;20173;-76